sensor_id;sensor_type;location;lat;lon;timestamp;P1;durP1;ratioP1;P2;durP2;ratioP2
68089;SDS011;54880;50.986;6.990;2024-01-06T00:00:42;9.27;;;4.73;;
68089;SDS011;54880;50.986;6.990;2024-01-06T00:03:07;9.27;;;4.03;;
68089;SDS011;54880;50.986;6.990;2024-01-06T00:05:32;9.17;;;3.90;;
68089;SDS011;54880;50.986;6.990;2024-01-06T00:07:58;8.37;;;4.20;;
68089;SDS011;54880;50.986;6.990;2024-01-06T00:10:23;11.03;;;4.00;;
68089;SDS011;54880;50.986;6.990;2024-01-06T00:12:48;11.68;;;4.97;;
68089;SDS011;54880;50.986;6.990;2024-01-06T00:15:14;10.27;;;4.78;;
68089;SDS011;54880;50.986;6.990;2024-01-06T00:17:39;10.17;;;5.00;;
68089;SDS011;54880;50.986;6.990;2024-01-06T00:20:04;10.53;;;4.80;;
68089;SDS011;54880;50.986;6.990;2024-01-06T00:22:30;8.80;;;4.03;;
68089;SDS011;54880;50.986;6.990;2024-01-06T00:24:55;9.17;;;4.20;;
68089;SDS011;54880;50.986;6.990;2024-01-06T00:27:20;9.50;;;4.27;;
68089;SDS011;54880;50.986;6.990;2024-01-06T00:29:45;9.63;;;4.23;;
68089;SDS011;54880;50.986;6.990;2024-01-06T00:32:12;10.45;;;5.05;;
68089;SDS011;54880;50.986;6.990;2024-01-06T00:34:37;12.40;;;4.87;;
68089;SDS011;54880;50.986;6.990;2024-01-06T00:37:03;8.97;;;5.00;;
68089;SDS011;54880;50.986;6.990;2024-01-06T00:39:28;9.97;;;4.83;;
68089;SDS011;54880;50.986;6.990;2024-01-06T00:41:54;10.30;;;5.15;;
68089;SDS011;54880;50.986;6.990;2024-01-06T00:44:19;12.23;;;5.03;;
68089;SDS011;54880;50.986;6.990;2024-01-06T00:46:44;10.23;;;5.00;;
68089;SDS011;54880;50.986;6.990;2024-01-06T00:49:09;11.83;;;5.80;;
68089;SDS011;54880;50.986;6.990;2024-01-06T00:51:35;12.50;;;5.93;;
68089;SDS011;54880;50.986;6.990;2024-01-06T00:54:00;14.83;;;6.43;;
68089;SDS011;54880;50.986;6.990;2024-01-06T00:56:25;14.37;;;6.00;;
68089;SDS011;54880;50.986;6.990;2024-01-06T00:58:52;13.68;;;6.97;;
68089;SDS011;54880;50.986;6.990;2024-01-06T01:01:17;16.63;;;7.80;;
68089;SDS011;54880;50.986;6.990;2024-01-06T01:03:42;12.80;;;6.30;;
68089;SDS011;54880;50.986;6.990;2024-01-06T01:06:07;12.90;;;6.20;;
68089;SDS011;54880;50.986;6.990;2024-01-06T01:08:33;12.30;;;6.53;;
68089;SDS011;54880;50.986;6.990;2024-01-06T01:10:58;13.50;;;6.43;;
68089;SDS011;54880;50.986;6.990;2024-01-06T01:13:23;12.10;;;6.50;;
68089;SDS011;54880;50.986;6.990;2024-01-06T01:15:49;12.90;;;6.27;;
68089;SDS011;54880;50.986;6.990;2024-01-06T01:18:14;13.60;;;6.70;;
68089;SDS011;54880;50.986;6.990;2024-01-06T01:20:39;14.20;;;6.50;;
68089;SDS011;54880;50.986;6.990;2024-01-06T01:23:07;13.32;;;6.75;;
68089;SDS011;54880;50.986;6.990;2024-01-06T01:25:32;13.83;;;7.00;;
68089;SDS011;54880;50.986;6.990;2024-01-06T01:27:57;13.50;;;6.73;;
68089;SDS011;54880;50.986;6.990;2024-01-06T01:30:22;15.83;;;7.37;;
68089;SDS011;54880;50.986;6.990;2024-01-06T01:32:47;16.07;;;7.47;;
68089;SDS011;54880;50.986;6.990;2024-01-06T01:35:13;15.27;;;7.73;;
68089;SDS011;54880;50.986;6.990;2024-01-06T01:37:38;16.23;;;7.73;;
68089;SDS011;54880;50.986;6.990;2024-01-06T01:40:03;14.57;;;7.53;;
68089;SDS011;54880;50.986;6.990;2024-01-06T01:42:29;18.33;;;6.93;;
68089;SDS011;54880;50.986;6.990;2024-01-06T01:44:54;15.63;;;7.13;;
68089;SDS011;54880;50.986;6.990;2024-01-06T01:47:19;14.80;;;7.93;;
68089;SDS011;54880;50.986;6.990;2024-01-06T01:49:46;13.75;;;7.75;;
68089;SDS011;54880;50.986;6.990;2024-01-06T01:52:12;14.35;;;7.45;;
68089;SDS011;54880;50.986;6.990;2024-01-06T01:54:38;16.70;;;7.30;;
68089;SDS011;54880;50.986;6.990;2024-01-06T01:57:04;15.60;;;7.60;;
68089;SDS011;54880;50.986;6.990;2024-01-06T01:59:29;14.20;;;7.17;;
68089;SDS011;54880;50.986;6.990;2024-01-06T02:01:55;16.27;;;8.20;;
68089;SDS011;54880;50.986;6.990;2024-01-06T02:04:20;18.80;;;7.25;;
68089;SDS011;54880;50.986;6.990;2024-01-06T02:06:46;14.07;;;7.83;;
68089;SDS011;54880;50.986;6.990;2024-01-06T02:09:11;15.37;;;7.80;;
68089;SDS011;54880;50.986;6.990;2024-01-06T02:11:36;18.20;;;8.60;;
68089;SDS011;54880;50.986;6.990;2024-01-06T02:14:01;16.63;;;8.70;;
68089;SDS011;54880;50.986;6.990;2024-01-06T02:16:27;17.80;;;9.00;;
68089;SDS011;54880;50.986;6.990;2024-01-06T02:18:52;13.43;;;7.53;;
68089;SDS011;54880;50.986;6.990;2024-01-06T02:21:17;16.73;;;9.00;;
68089;SDS011;54880;50.986;6.990;2024-01-06T02:23:42;17.03;;;8.23;;
68089;SDS011;54880;50.986;6.990;2024-01-06T02:26:08;17.37;;;8.63;;
68089;SDS011;54880;50.986;6.990;2024-01-06T02:28:34;16.80;;;8.83;;
68089;SDS011;54880;50.986;6.990;2024-01-06T02:30:59;16.10;;;8.77;;
68089;SDS011;54880;50.986;6.990;2024-01-06T02:33:24;16.63;;;8.67;;
68089;SDS011;54880;50.986;6.990;2024-01-06T02:35:49;19.17;;;8.60;;
68089;SDS011;54880;50.986;6.990;2024-01-06T02:38:15;15.63;;;8.10;;
68089;SDS011;54880;50.986;6.990;2024-01-06T02:40:40;17.67;;;8.20;;
68089;SDS011;54880;50.986;6.990;2024-01-06T02:43:05;17.67;;;8.87;;
68089;SDS011;54880;50.986;6.990;2024-01-06T02:45:30;16.23;;;8.77;;
68089;SDS011;54880;50.986;6.990;2024-01-06T02:47:56;17.47;;;8.60;;
68089;SDS011;54880;50.986;6.990;2024-01-06T02:50:21;16.17;;;8.37;;
68089;SDS011;54880;50.986;6.990;2024-01-06T02:52:47;15.73;;;8.23;;
68089;SDS011;54880;50.986;6.990;2024-01-06T02:55:12;17.97;;;8.80;;
68089;SDS011;54880;50.986;6.990;2024-01-06T02:57:38;16.73;;;8.45;;
68089;SDS011;54880;50.986;6.990;2024-01-06T03:00:04;18.67;;;9.60;;
68089;SDS011;54880;50.986;6.990;2024-01-06T03:02:29;19.30;;;8.63;;
68089;SDS011;54880;50.986;6.990;2024-01-06T03:04:54;17.47;;;8.00;;
68089;SDS011;54880;50.986;6.990;2024-01-06T03:07:20;18.30;;;8.07;;
68089;SDS011;54880;50.986;6.990;2024-01-06T03:09:45;17.83;;;8.87;;
68089;SDS011;54880;50.986;6.990;2024-01-06T03:12:11;16.17;;;8.40;;
68089;SDS011;54880;50.986;6.990;2024-01-06T03:14:36;15.93;;;8.37;;
68089;SDS011;54880;50.986;6.990;2024-01-06T03:17:02;17.48;;;7.70;;
68089;SDS011;54880;50.986;6.990;2024-01-06T03:19:28;14.33;;;7.50;;
68089;SDS011;54880;50.986;6.990;2024-01-06T03:21:53;14.52;;;7.45;;
68089;SDS011;54880;50.986;6.990;2024-01-06T03:24:19;15.30;;;7.30;;
68089;SDS011;54880;50.986;6.990;2024-01-06T03:26:44;15.60;;;8.00;;
68089;SDS011;54880;50.986;6.990;2024-01-06T03:29:09;16.80;;;8.40;;
68089;SDS011;54880;50.986;6.990;2024-01-06T03:31:34;15.10;;;7.83;;
68089;SDS011;54880;50.986;6.990;2024-01-06T03:34:00;16.10;;;8.20;;
68089;SDS011;54880;50.986;6.990;2024-01-06T03:36:25;15.03;;;7.20;;
68089;SDS011;54880;50.986;6.990;2024-01-06T03:38:50;16.87;;;8.23;;
68089;SDS011;54880;50.986;6.990;2024-01-06T03:41:15;17.53;;;8.17;;
68089;SDS011;54880;50.986;6.990;2024-01-06T03:43:41;18.07;;;9.03;;
68089;SDS011;54880;50.986;6.990;2024-01-06T03:46:06;16.23;;;8.40;;
68089;SDS011;54880;50.986;6.990;2024-01-06T03:48:31;19.03;;;9.67;;
68089;SDS011;54880;50.986;6.990;2024-01-06T03:50:57;17.70;;;8.73;;
68089;SDS011;54880;50.986;6.990;2024-01-06T03:53:22;19.58;;;8.93;;
68089;SDS011;54880;50.986;6.990;2024-01-06T03:55:47;20.23;;;9.03;;
68089;SDS011;54880;50.986;6.990;2024-01-06T03:58:12;19.83;;;8.93;;
68089;SDS011;54880;50.986;6.990;2024-01-06T04:00:38;17.93;;;8.83;;
68089;SDS011;54880;50.986;6.990;2024-01-06T04:03:03;19.53;;;9.17;;
68089;SDS011;54880;50.986;6.990;2024-01-06T04:05:29;19.03;;;9.33;;
68089;SDS011;54880;50.986;6.990;2024-01-06T04:07:54;19.80;;;9.15;;
68089;SDS011;54880;50.986;6.990;2024-01-06T04:10:20;21.70;;;9.83;;
68089;SDS011;54880;50.986;6.990;2024-01-06T04:12:45;25.13;;;11.30;;
68089;SDS011;54880;50.986;6.990;2024-01-06T04:15:10;21.03;;;9.70;;
68089;SDS011;54880;50.986;6.990;2024-01-06T04:17:35;22.23;;;10.77;;
68089;SDS011;54880;50.986;6.990;2024-01-06T04:20:01;23.07;;;10.77;;
68089;SDS011;54880;50.986;6.990;2024-01-06T04:22:26;24.33;;;11.30;;
68089;SDS011;54880;50.986;6.990;2024-01-06T04:24:51;25.23;;;11.63;;
68089;SDS011;54880;50.986;6.990;2024-01-06T04:27:17;26.63;;;12.17;;
68089;SDS011;54880;50.986;6.990;2024-01-06T04:29:42;29.53;;;12.20;;
68089;SDS011;54880;50.986;6.990;2024-01-06T04:32:07;28.07;;;12.97;;
68089;SDS011;54880;50.986;6.990;2024-01-06T04:34:32;27.37;;;12.10;;
68089;SDS011;54880;50.986;6.990;2024-01-06T04:36:58;28.50;;;13.57;;
68089;SDS011;54880;50.986;6.990;2024-01-06T04:39:23;27.50;;;12.90;;
68089;SDS011;54880;50.986;6.990;2024-01-06T04:41:49;30.10;;;12.87;;
68089;SDS011;54880;50.986;6.990;2024-01-06T04:44:14;28.50;;;13.40;;
68089;SDS011;54880;50.986;6.990;2024-01-06T04:46:39;31.47;;;13.33;;
68089;SDS011;54880;50.986;6.990;2024-01-06T04:49:04;29.57;;;13.37;;
68089;SDS011;54880;50.986;6.990;2024-01-06T04:51:30;34.73;;;14.23;;
68089;SDS011;54880;50.986;6.990;2024-01-06T04:53:55;33.27;;;13.73;;
68089;SDS011;54880;50.986;6.990;2024-01-06T04:56:20;34.17;;;14.10;;
68089;SDS011;54880;50.986;6.990;2024-01-06T04:58:45;31.97;;;13.87;;
68089;SDS011;54880;50.986;6.990;2024-01-06T05:01:10;33.13;;;14.47;;
68089;SDS011;54880;50.986;6.990;2024-01-06T05:03:36;33.40;;;13.80;;
68089;SDS011;54880;50.986;6.990;2024-01-06T05:06:01;30.08;;;12.52;;
68089;SDS011;54880;50.986;6.990;2024-01-06T05:08:26;32.37;;;12.77;;
68089;SDS011;54880;50.986;6.990;2024-01-06T05:10:52;32.70;;;13.40;;
68089;SDS011;54880;50.986;6.990;2024-01-06T05:13:17;31.73;;;13.03;;
68089;SDS011;54880;50.986;6.990;2024-01-06T05:15:43;28.23;;;11.97;;
68089;SDS011;54880;50.986;6.990;2024-01-06T05:18:08;30.73;;;13.27;;
68089;SDS011;54880;50.986;6.990;2024-01-06T05:20:33;31.47;;;13.83;;
68089;SDS011;54880;50.986;6.990;2024-01-06T05:22:58;33.33;;;13.90;;
68089;SDS011;54880;50.986;6.990;2024-01-06T05:25:24;33.17;;;13.50;;
68089;SDS011;54880;50.986;6.990;2024-01-06T05:27:49;32.17;;;12.20;;
68089;SDS011;54880;50.986;6.990;2024-01-06T05:30:14;33.20;;;13.60;;
68089;SDS011;54880;50.986;6.990;2024-01-06T05:32:39;31.10;;;12.53;;
68089;SDS011;54880;50.986;6.990;2024-01-06T05:35:05;28.10;;;12.97;;
68089;SDS011;54880;50.986;6.990;2024-01-06T05:37:31;26.23;;;11.90;;
68089;SDS011;54880;50.986;6.990;2024-01-06T05:39:56;26.20;;;11.20;;
68089;SDS011;54880;50.986;6.990;2024-01-06T05:42:26;27.05;;;11.45;;
68089;SDS011;54880;50.986;6.990;2024-01-06T05:44:51;25.50;;;11.20;;
68089;SDS011;54880;50.986;6.990;2024-01-06T05:47:16;26.97;;;11.53;;
68089;SDS011;54880;50.986;6.990;2024-01-06T05:49:42;23.70;;;10.23;;
68089;SDS011;54880;50.986;6.990;2024-01-06T05:52:08;25.05;;;10.77;;
68089;SDS011;54880;50.986;6.990;2024-01-06T05:54:33;20.93;;;9.30;;
68089;SDS011;54880;50.986;6.990;2024-01-06T05:56:59;21.97;;;10.07;;
68089;SDS011;54880;50.986;6.990;2024-01-06T05:59:25;24.42;;;9.27;;
68089;SDS011;54880;50.986;6.990;2024-01-06T06:01:50;22.13;;;9.60;;
68089;SDS011;54880;50.986;6.990;2024-01-06T06:04:15;23.20;;;9.47;;
68089;SDS011;54880;50.986;6.990;2024-01-06T06:06:40;20.57;;;8.43;;
68089;SDS011;54880;50.986;6.990;2024-01-06T06:09:06;19.17;;;8.50;;
68089;SDS011;54880;50.986;6.990;2024-01-06T06:11:32;18.13;;;7.60;;
68089;SDS011;54880;50.986;6.990;2024-01-06T06:13:58;17.40;;;7.50;;
68089;SDS011;54880;50.986;6.990;2024-01-06T06:16:23;16.30;;;7.03;;
68089;SDS011;54880;50.986;6.990;2024-01-06T06:18:48;18.73;;;7.40;;
68089;SDS011;54880;50.986;6.990;2024-01-06T06:21:13;20.20;;;7.83;;
68089;SDS011;54880;50.986;6.990;2024-01-06T06:23:39;17.40;;;7.13;;
68089;SDS011;54880;50.986;6.990;2024-01-06T06:26:05;17.10;;;7.53;;
68089;SDS011;54880;50.986;6.990;2024-01-06T06:28:30;21.42;;;7.82;;
68089;SDS011;54880;50.986;6.990;2024-01-06T06:30:56;18.27;;;7.17;;
68089;SDS011;54880;50.986;6.990;2024-01-06T06:33:21;17.07;;;7.30;;
68089;SDS011;54880;50.986;6.990;2024-01-06T06:35:46;18.73;;;7.77;;
68089;SDS011;54880;50.986;6.990;2024-01-06T06:38:11;19.00;;;7.80;;
68089;SDS011;54880;50.986;6.990;2024-01-06T06:40:37;22.97;;;8.63;;
68089;SDS011;54880;50.986;6.990;2024-01-06T06:43:02;21.43;;;8.80;;
68089;SDS011;54880;50.986;6.990;2024-01-06T06:45:27;20.17;;;9.17;;
68089;SDS011;54880;50.986;6.990;2024-01-06T06:47:52;22.80;;;8.77;;
68089;SDS011;54880;50.986;6.990;2024-01-06T06:50:18;17.83;;;7.57;;
68089;SDS011;54880;50.986;6.990;2024-01-06T06:52:44;20.07;;;8.33;;
68089;SDS011;54880;50.986;6.990;2024-01-06T06:55:09;20.98;;;8.73;;
68089;SDS011;54880;50.986;6.990;2024-01-06T06:57:35;18.00;;;7.43;;
68089;SDS011;54880;50.986;6.990;2024-01-06T07:00:00;20.00;;;8.65;;
68089;SDS011;54880;50.986;6.990;2024-01-06T07:02:25;19.03;;;8.50;;
68089;SDS011;54880;50.986;6.990;2024-01-06T07:04:51;21.83;;;8.45;;
68089;SDS011;54880;50.986;6.990;2024-01-06T07:07:16;19.63;;;8.37;;
68089;SDS011;54880;50.986;6.990;2024-01-06T07:09:41;18.00;;;7.37;;
68089;SDS011;54880;50.986;6.990;2024-01-06T07:12:06;17.37;;;7.43;;
68089;SDS011;54880;50.986;6.990;2024-01-06T07:14:33;16.95;;;6.97;;
68089;SDS011;54880;50.986;6.990;2024-01-06T07:16:58;18.63;;;7.43;;
68089;SDS011;54880;50.986;6.990;2024-01-06T07:19:23;17.83;;;7.50;;
68089;SDS011;54880;50.986;6.990;2024-01-06T07:21:48;18.93;;;7.43;;
68089;SDS011;54880;50.986;6.990;2024-01-06T07:24:14;18.37;;;7.20;;
68089;SDS011;54880;50.986;6.990;2024-01-06T07:26:39;15.33;;;6.23;;
68089;SDS011;54880;50.986;6.990;2024-01-06T07:29:04;19.07;;;6.93;;
68089;SDS011;54880;50.986;6.990;2024-01-06T07:31:29;15.07;;;6.67;;
68089;SDS011;54880;50.986;6.990;2024-01-06T07:33:55;17.53;;;6.73;;
68089;SDS011;54880;50.986;6.990;2024-01-06T07:36:20;19.47;;;7.20;;
68089;SDS011;54880;50.986;6.990;2024-01-06T07:38:46;18.77;;;6.82;;
68089;SDS011;54880;50.986;6.990;2024-01-06T07:41:11;16.67;;;6.90;;
68089;SDS011;54880;50.986;6.990;2024-01-06T07:43:37;20.33;;;6.73;;
68089;SDS011;54880;50.986;6.990;2024-01-06T07:46:02;17.90;;;7.20;;
68089;SDS011;54880;50.986;6.990;2024-01-06T07:48:28;19.92;;;8.05;;
68089;SDS011;54880;50.986;6.990;2024-01-06T07:50:54;21.73;;;8.10;;
68089;SDS011;54880;50.986;6.990;2024-01-06T07:53:19;18.97;;;7.60;;
68089;SDS011;54880;50.986;6.990;2024-01-06T07:55:44;19.13;;;7.23;;
68089;SDS011;54880;50.986;6.990;2024-01-06T07:58:09;17.87;;;6.90;;
68089;SDS011;54880;50.986;6.990;2024-01-06T08:00:34;18.37;;;7.30;;
68089;SDS011;54880;50.986;6.990;2024-01-06T08:03:00;19.50;;;8.00;;
68089;SDS011;54880;50.986;6.990;2024-01-06T08:05:25;21.73;;;8.03;;
68089;SDS011;54880;50.986;6.990;2024-01-06T08:07:51;19.77;;;8.13;;
68089;SDS011;54880;50.986;6.990;2024-01-06T08:10:16;19.83;;;8.25;;
68089;SDS011;54880;50.986;6.990;2024-01-06T08:12:41;20.67;;;7.57;;
68089;SDS011;54880;50.986;6.990;2024-01-06T08:15:07;18.10;;;7.50;;
68089;SDS011;54880;50.986;6.990;2024-01-06T08:17:34;16.77;;;7.00;;
68089;SDS011;54880;50.986;6.990;2024-01-06T08:20:00;18.52;;;8.02;;
68089;SDS011;54880;50.986;6.990;2024-01-06T08:22:25;20.27;;;7.73;;
68089;SDS011;54880;50.986;6.990;2024-01-06T08:24:50;17.57;;;7.07;;
68089;SDS011;54880;50.986;6.990;2024-01-06T08:27:15;18.53;;;7.40;;
68089;SDS011;54880;50.986;6.990;2024-01-06T08:29:41;17.30;;;7.10;;
68089;SDS011;54880;50.986;6.990;2024-01-06T08:32:06;19.87;;;7.23;;
68089;SDS011;54880;50.986;6.990;2024-01-06T08:34:31;18.27;;;7.27;;
68089;SDS011;54880;50.986;6.990;2024-01-06T08:36:57;19.27;;;7.50;;
68089;SDS011;54880;50.986;6.990;2024-01-06T08:39:22;20.63;;;8.00;;
68089;SDS011;54880;50.986;6.990;2024-01-06T08:41:49;19.10;;;7.18;;
68089;SDS011;54880;50.986;6.990;2024-01-06T08:44:14;21.53;;;8.03;;
68089;SDS011;54880;50.986;6.990;2024-01-06T08:46:40;17.95;;;6.88;;
68089;SDS011;54880;50.986;6.990;2024-01-06T08:49:05;18.27;;;7.33;;
68089;SDS011;54880;50.986;6.990;2024-01-06T08:51:30;17.67;;;6.97;;
68089;SDS011;54880;50.986;6.990;2024-01-06T08:53:56;20.53;;;6.77;;
68089;SDS011;54880;50.986;6.990;2024-01-06T08:56:21;17.93;;;7.20;;
68089;SDS011;54880;50.986;6.990;2024-01-06T08:58:46;20.73;;;7.50;;
68089;SDS011;54880;50.986;6.990;2024-01-06T09:01:12;16.30;;;6.67;;
68089;SDS011;54880;50.986;6.990;2024-01-06T09:03:38;16.30;;;6.22;;
68089;SDS011;54880;50.986;6.990;2024-01-06T09:06:03;19.90;;;8.10;;
68089;SDS011;54880;50.986;6.990;2024-01-06T09:08:29;18.90;;;7.70;;
68089;SDS011;54880;50.986;6.990;2024-01-06T09:10:54;19.37;;;7.47;;
68089;SDS011;54880;50.986;6.990;2024-01-06T09:13:23;20.10;;;7.47;;
68089;SDS011;54880;50.986;6.990;2024-01-06T09:15:49;19.13;;;6.97;;
68089;SDS011;54880;50.986;6.990;2024-01-06T09:18:15;18.00;;;6.68;;
68089;SDS011;54880;50.986;6.990;2024-01-06T09:20:40;16.37;;;6.67;;
68089;SDS011;54880;50.986;6.990;2024-01-06T09:23:06;14.93;;;6.40;;
68089;SDS011;54880;50.986;6.990;2024-01-06T09:25:31;19.25;;;6.85;;
68089;SDS011;54880;50.986;6.990;2024-01-06T09:27:56;19.27;;;7.63;;
68089;SDS011;54880;50.986;6.990;2024-01-06T09:30:23;18.10;;;6.53;;
68089;SDS011;54880;50.986;6.990;2024-01-06T09:32:50;18.13;;;6.20;;
68089;SDS011;54880;50.986;6.990;2024-01-06T09:35:15;14.73;;;5.60;;
68089;SDS011;54880;50.986;6.990;2024-01-06T09:37:40;15.67;;;5.60;;
68089;SDS011;54880;50.986;6.990;2024-01-06T09:40:06;18.70;;;6.40;;
68089;SDS011;54880;50.986;6.990;2024-01-06T09:42:33;17.02;;;5.75;;
68089;SDS011;54880;50.986;6.990;2024-01-06T09:44:58;18.83;;;6.90;;
68089;SDS011;54880;50.986;6.990;2024-01-06T09:47:23;17.70;;;6.07;;
68089;SDS011;54880;50.986;6.990;2024-01-06T09:49:50;14.25;;;5.72;;
68089;SDS011;54880;50.986;6.990;2024-01-06T09:52:18;20.73;;;6.60;;
68089;SDS011;54880;50.986;6.990;2024-01-06T09:54:48;17.65;;;6.50;;
68089;SDS011;54880;50.986;6.990;2024-01-06T09:57:15;19.58;;;6.78;;
68089;SDS011;54880;50.986;6.990;2024-01-06T09:59:41;14.87;;;6.00;;
68089;SDS011;54880;50.986;6.990;2024-01-06T10:02:07;17.43;;;6.37;;
68089;SDS011;54880;50.986;6.990;2024-01-06T10:04:32;18.40;;;7.45;;
68089;SDS011;54880;50.986;6.990;2024-01-06T10:06:58;15.75;;;6.15;;
68089;SDS011;54880;50.986;6.990;2024-01-06T10:09:27;18.00;;;6.13;;
68089;SDS011;54880;50.986;6.990;2024-01-06T10:11:54;17.83;;;6.82;;
68089;SDS011;54880;50.986;6.990;2024-01-06T10:14:20;16.65;;;6.05;;
68089;SDS011;54880;50.986;6.990;2024-01-06T10:16:46;16.48;;;6.13;;
68089;SDS011;54880;50.986;6.990;2024-01-06T10:19:14;18.20;;;6.97;;
68089;SDS011;54880;50.986;6.990;2024-01-06T10:21:39;16.53;;;6.40;;
68089;SDS011;54880;50.986;6.990;2024-01-06T10:24:06;17.77;;;6.67;;
68089;SDS011;54880;50.986;6.990;2024-01-06T10:26:32;18.08;;;7.25;;
68089;SDS011;54880;50.986;6.990;2024-01-06T10:28:57;16.97;;;6.17;;
68089;SDS011;54880;50.986;6.990;2024-01-06T10:31:24;17.92;;;6.95;;
68089;SDS011;54880;50.986;6.990;2024-01-06T10:33:49;20.43;;;6.90;;
68089;SDS011;54880;50.986;6.990;2024-01-06T10:36:15;19.30;;;6.97;;
68089;SDS011;54880;50.986;6.990;2024-01-06T10:38:40;17.17;;;6.40;;
68089;SDS011;54880;50.986;6.990;2024-01-06T10:41:06;15.53;;;5.37;;
68089;SDS011;54880;50.986;6.990;2024-01-06T10:43:35;17.95;;;6.32;;
68089;SDS011;54880;50.986;6.990;2024-01-06T10:46:03;15.70;;;6.90;;
68089;SDS011;54880;50.986;6.990;2024-01-06T10:48:32;16.13;;;5.70;;
68089;SDS011;54880;50.986;6.990;2024-01-06T10:51:00;18.17;;;6.67;;
68089;SDS011;54880;50.986;6.990;2024-01-06T10:53:27;18.27;;;6.57;;
68089;SDS011;54880;50.986;6.990;2024-01-06T10:55:53;16.90;;;7.35;;
68089;SDS011;54880;50.986;6.990;2024-01-06T10:58:18;21.58;;;6.80;;
68089;SDS011;54880;50.986;6.990;2024-01-06T11:00:44;21.70;;;6.93;;
68089;SDS011;54880;50.986;6.990;2024-01-06T11:03:10;17.38;;;6.10;;
68089;SDS011;54880;50.986;6.990;2024-01-06T11:05:36;15.67;;;5.77;;
68089;SDS011;54880;50.986;6.990;2024-01-06T11:08:01;17.13;;;6.47;;
68089;SDS011;54880;50.986;6.990;2024-01-06T11:10:27;19.60;;;7.10;;
68089;SDS011;54880;50.986;6.990;2024-01-06T11:15:43;18.60;;;7.03;;
68089;SDS011;54880;50.986;6.990;2024-01-06T11:18:09;21.10;;;7.53;;
68089;SDS011;54880;50.986;6.990;2024-01-06T11:20:34;18.80;;;6.80;;
68089;SDS011;54880;50.986;6.990;2024-01-06T11:23:16;18.08;;;7.03;;
68089;SDS011;54880;50.986;6.990;2024-01-06T11:25:42;18.75;;;7.45;;
68089;SDS011;54880;50.986;6.990;2024-01-06T11:28:07;18.30;;;7.33;;
68089;SDS011;54880;50.986;6.990;2024-01-06T11:30:33;18.35;;;7.72;;
68089;SDS011;54880;50.986;6.990;2024-01-06T11:33:00;16.55;;;6.20;;
68089;SDS011;54880;50.986;6.990;2024-01-06T11:35:28;20.43;;;7.53;;
68089;SDS011;54880;50.986;6.990;2024-01-06T11:37:55;24.73;;;8.90;;
68089;SDS011;54880;50.986;6.990;2024-01-06T11:42:47;24.38;;;9.32;;
68089;SDS011;54880;50.986;6.990;2024-01-06T11:45:13;23.23;;;8.97;;
68089;SDS011;54880;50.986;6.990;2024-01-06T11:47:39;21.77;;;8.23;;
68089;SDS011;54880;50.986;6.990;2024-01-06T11:50:04;20.43;;;8.03;;
68089;SDS011;54880;50.986;6.990;2024-01-06T11:52:30;19.98;;;7.57;;
68089;SDS011;54880;50.986;6.990;2024-01-06T11:54:56;19.95;;;6.88;;
68089;SDS011;54880;50.986;6.990;2024-01-06T11:57:21;22.23;;;7.90;;
68089;SDS011;54880;50.986;6.990;2024-01-06T11:59:47;23.02;;;8.52;;
68089;SDS011;54880;50.986;6.990;2024-01-06T12:02:13;24.02;;;9.13;;
68089;SDS011;54880;50.986;6.990;2024-01-06T12:04:38;22.30;;;8.65;;
68089;SDS011;54880;50.986;6.990;2024-01-06T12:07:08;24.60;;;8.73;;
68089;SDS011;54880;50.986;6.990;2024-01-06T12:09:34;20.83;;;7.60;;
68089;SDS011;54880;50.986;6.990;2024-01-06T12:12:04;20.73;;;7.82;;
68089;SDS011;54880;50.986;6.990;2024-01-06T12:14:30;18.67;;;7.28;;
68089;SDS011;54880;50.986;6.990;2024-01-06T12:16:55;20.03;;;6.63;;
68089;SDS011;54880;50.986;6.990;2024-01-06T12:19:25;25.17;;;9.32;;
68089;SDS011;54880;50.986;6.990;2024-01-06T12:21:50;23.30;;;9.13;;
68089;SDS011;54880;50.986;6.990;2024-01-06T12:24:16;22.33;;;8.10;;
68089;SDS011;54880;50.986;6.990;2024-01-06T12:26:45;19.77;;;7.05;;
68089;SDS011;54880;50.986;6.990;2024-01-06T12:29:11;22.40;;;7.90;;
68089;SDS011;54880;50.986;6.990;2024-01-06T12:31:37;24.88;;;8.95;;
68089;SDS011;54880;50.986;6.990;2024-01-06T12:34:03;20.10;;;7.57;;
68089;SDS011;54880;50.986;6.990;2024-01-06T12:36:29;18.38;;;6.60;;
68089;SDS011;54880;50.986;6.990;2024-01-06T12:38:57;20.07;;;7.63;;
68089;SDS011;54880;50.986;6.990;2024-01-06T12:41:23;19.98;;;6.75;;
68089;SDS011;54880;50.986;6.990;2024-01-06T12:43:50;23.15;;;7.90;;
68089;SDS011;54880;50.986;6.990;2024-01-06T12:46:15;20.37;;;8.20;;
68089;SDS011;54880;50.986;6.990;2024-01-06T12:48:41;24.90;;;7.57;;
68089;SDS011;54880;50.986;6.990;2024-01-06T12:51:06;23.23;;;7.83;;
68089;SDS011;54880;50.986;6.990;2024-01-06T12:53:31;23.70;;;7.97;;
68089;SDS011;54880;50.986;6.990;2024-01-06T12:55:56;22.63;;;7.80;;
68089;SDS011;54880;50.986;6.990;2024-01-06T12:58:22;26.93;;;8.40;;
68089;SDS011;54880;50.986;6.990;2024-01-06T13:00:48;25.27;;;8.70;;
68089;SDS011;54880;50.986;6.990;2024-01-06T13:03:14;21.83;;;7.63;;
68089;SDS011;54880;50.986;6.990;2024-01-06T13:05:39;22.95;;;7.78;;
68089;SDS011;54880;50.986;6.990;2024-01-06T13:08:05;24.13;;;8.50;;
68089;SDS011;54880;50.986;6.990;2024-01-06T13:10:30;26.70;;;9.00;;
68089;SDS011;54880;50.986;6.990;2024-01-06T13:12:55;26.57;;;9.43;;
68089;SDS011;54880;50.986;6.990;2024-01-06T13:15:21;22.13;;;8.83;;
68089;SDS011;54880;50.986;6.990;2024-01-06T13:17:46;21.97;;;8.00;;
68089;SDS011;54880;50.986;6.990;2024-01-06T13:20:11;23.10;;;8.03;;
68089;SDS011;54880;50.986;6.990;2024-01-06T13:22:37;23.53;;;8.17;;
68089;SDS011;54880;50.986;6.990;2024-01-06T13:25:02;22.03;;;8.03;;
68089;SDS011;54880;50.986;6.990;2024-01-06T13:27:28;20.23;;;7.15;;
68089;SDS011;54880;50.986;6.990;2024-01-06T13:29:54;22.08;;;7.93;;
68089;SDS011;54880;50.986;6.990;2024-01-06T13:32:19;19.53;;;7.87;;
68089;SDS011;54880;50.986;6.990;2024-01-06T13:34:47;20.90;;;7.70;;
68089;SDS011;54880;50.986;6.990;2024-01-06T13:37:12;20.90;;;8.07;;
68089;SDS011;54880;50.986;6.990;2024-01-06T13:39:37;23.47;;;8.10;;
68089;SDS011;54880;50.986;6.990;2024-01-06T13:42:03;22.87;;;8.50;;
68089;SDS011;54880;50.986;6.990;2024-01-06T13:44:31;25.20;;;9.07;;
68089;SDS011;54880;50.986;6.990;2024-01-06T13:46:56;22.53;;;8.87;;
68089;SDS011;54880;50.986;6.990;2024-01-06T13:49:22;23.10;;;9.33;;
68089;SDS011;54880;50.986;6.990;2024-01-06T13:51:48;26.27;;;8.77;;
68089;SDS011;54880;50.986;6.990;2024-01-06T13:54:14;33.13;;;12.70;;
68089;SDS011;54880;50.986;6.990;2024-01-06T13:56:39;35.43;;;12.67;;
68089;SDS011;54880;50.986;6.990;2024-01-06T13:59:04;26.20;;;10.07;;
68089;SDS011;54880;50.986;6.990;2024-01-06T14:01:30;27.93;;;10.03;;
68089;SDS011;54880;50.986;6.990;2024-01-06T14:03:55;24.73;;;9.65;;
68089;SDS011;54880;50.986;6.990;2024-01-06T14:06:26;25.65;;;10.48;;
68089;SDS011;54880;50.986;6.990;2024-01-06T14:08:55;28.33;;;11.35;;
68089;SDS011;54880;50.986;6.990;2024-01-06T14:11:20;32.40;;;11.27;;
68089;SDS011;54880;50.986;6.990;2024-01-06T14:13:45;24.67;;;10.20;;
68089;SDS011;54880;50.986;6.990;2024-01-06T14:16:16;30.13;;;12.15;;
68089;SDS011;54880;50.986;6.990;2024-01-06T14:18:42;35.58;;;12.95;;
68089;SDS011;54880;50.986;6.990;2024-01-06T14:21:11;37.67;;;13.63;;
68089;SDS011;54880;50.986;6.990;2024-01-06T14:23:39;38.22;;;15.35;;
68089;SDS011;54880;50.986;6.990;2024-01-06T14:26:05;48.73;;;18.20;;
68089;SDS011;54880;50.986;6.990;2024-01-06T14:28:30;52.20;;;18.23;;